List of candidates cleared the psychometric test for the post of SC/TO is uploaded in Latest News section.

Opportunities

To know the detailed description of a Notification, please click on the Notification Ref. link on each row. To know more details of the post such as Qualification required, Experience requirement, Scale of Pay, Max Age, etc. please click on button, which is shown against each post (on the right side of the table, beside 'Apply Now' button). Then proceed after reading the instructions.

Sl.No. Company Notification Date Notification Ref. Vac. Type Vac. ID Vacancy Name No of Vac. Appl. Fee Appl. Start Date Appl. End Date Status
 
1 KMRL 09 Jul 2019 KMRL/HR/20190701 Regular 225 Exe (Mktg) 1 ₹500/- 10 Jul 2019 1:00 am 25 Jul 2019 11:59 pm  
2 KMRL 09 Jul 2019 KMRL/HR/20190701 Regular 226 ET (Mktg) 1 ₹500/- 10 Jul 2019 1:00 am 25 Jul 2019 11:59 pm  
3 KMRL 10 Jul 2019 KMRL/HR/20190703 Regular 227 DGM (STC) 1 ₹500/- 10 Jul 2019 12:00 am 25 Jul 2019 11:59 pm  
4 KMRL 10 Jul 2019 KMRL/HR/20190702 Contract 228 MGR (Quality & Safety) 1 ₹500/- 10 Jul 2019 12:00 am 25 Jul 2019 11:59 pm  
1 to 1 of 1 Records
Results per page
Sl.No. Company Notification Date Notification Ref. Vac. Type Vac. ID Vacancy Name No of Vacancies Appl. Start Date Appl. End Date
 
1 KMRL 14 May 2019 KMRL/HR/20190501 Regular 223 Company Secretary 1 14 May 2019 2:00 pm 27 May 2019 11:59 pm      Under Process
2 KMRL 21 Nov 2018 KMRL/HR/20181101 Regular 218 GM (O&M) 1 21 Nov 2018 12:00 am 12 Dec 2018 11:59 pm      Under Process
3 KMRL 21 Nov 2018 KMRL/HR/20181101 Regular 219 DGM (PST) 1 21 Nov 2018 12:00 am 12 Dec 2018 11:57 pm      Under Process
4 KMRL 24 Jul 2018 KMRL/HR/20180702 Regular 216 DGM (TRACK) 1 24 Jul 2018 12:00 am 08 Aug 2018 11:59 pm      Under Process
5 KMRL 24 Jul 2018 KMRL/HR/20180703 Contract 217 DGM (Civil-WM) 1 24 Jul 2018 12:00 am 08 Aug 2018 11:59 pm      Under Process
6 KMRL 13 Mar 2018 KMRL/HR/20180303 Regular 209 Manager (Secretarial) 1 13 Mar 2018 10:00 am 28 Mar 2018 11:59 pm      Under Process
7 KMRL 07 Feb 2018 KMRL/HR/20180201 Regular 205 AM (Alt. Revenue-Fin) 1 07 Feb 2018 12:00 am 21 Feb 2018 11:59 pm      Under Process
8 KMRL 11 Oct 2017 KMRL/HR/20171002 Contract 187 Doc. Controller 1 12 Oct 2017 10:00 am 31 Oct 2017 11:59 pm      Under Process
9 KMRL 17 May 2017 KMRL/HR/20170502 Regular 176 DGM (Track) 1 17 May 2017 7:00 pm 29 May 2017 11:59 pm      Under Process
10 KMRL 15 Mar 2017 KMRL/HR/20170301 Regular 172 DGM (Track) 1 15 Mar 2017 8:00 am 29 Mar 2017 11:59 pm      Under Process
1 to 10 of 16 Records
Results per page
Sl.No. Company Notification Date Notification Ref. Vac. Type Vac. ID Vacancy Name No of Vacancies Appl. Start Date Appl. End Date
  
31 KMRL 10 Jan 2017 KMRL/HR/20170101 Regular 164 JGM (Power & Traction) 1 10 Jan 2017 11:45 pm 25 Jan 2017 11:59 pm      None found suitable
32 KMRL 10 Jan 2017 KMRL/HR/20170101 Regular 165 Legal Officer 1 10 Jan 2017 11:59 pm 25 Jan 2017 11:59 pm      Selected
33 KMRL 11 Jan 2017 KMRL/HR/20170101 Regular 168 DGM (Telecom) 1 11 Jan 2017 12:01 am 25 Jan 2017 11:59 pm      Selected
34 KMRL 12 Jan 2017 KMRL/HR/20170101 Contract 169 MGR (Track) 1 12 Jan 2017 4:30 pm 25 Jan 2017 11:59 pm      Selected
35 KMRL 14 Dec 2016 KMRL/HR/20161202 Regular 162 SDGM (P & S) 1 14 Dec 2016 12:00 am 28 Dec 2016 11:59 pm      Selected
36 KMRL 14 Dec 2016 KMRL/HR/20161202 Regular 163 DGM (Mktg) 1 14 Dec 2016 12:00 am 28 Dec 2016 11:59 pm      Selected
37 KMRL 23 Nov 2016 KMRL/HR/20161104 Contract 157 AGM (P&T) 1 23 Nov 2016 12:00 am 07 Dec 2016 11:59 pm      None found suitable
38 KMRL 23 Nov 2016 KMRL/HR/20161104 Contract 158 AGM (E&M) 1 23 Nov 2016 12:00 am 07 Dec 2016 11:59 pm      Selected
39 KMRL 23 Nov 2016 KMRL/HR/20161104 Contract 159 MGR (Track) 1 23 Nov 2016 12:00 am 07 Dec 2016 11:59 pm      None found suitable
40 KMRL 23 Nov 2016 KMRL/HR/20161104 Contract 160 Legal Officer 1 23 Nov 2016 12:00 am 07 Dec 2016 11:59 pm      None found suitable
31 to 40 of 171 Records
Results per page